Time;durP1;ratioP1;P1;durP2;ratioP2;P2;SDS_P1;SDS_P2;PMS_P1;PMS_P2;Temp;Humidity;BMP_temperature;BMP_pressure;BME280_temperature;BME280_humidity;BME280_pressure;Samples;Min_cycle;Max_cycle;Signal;HPM_P1;HPM_P2
2022/07/06 00:00:17;;;;;;;12.43;0.90;;;18.10;90.40;;;;;;10181524;29;20054;-89
2022/07/06 00:05:19;;;;;;;3.97;0.55;;;18.00;90.90;;;;;;10159164;29;20991;-88
2022/07/06 00:10:21;;;;;;;5.88;0.60;;;17.90;91.40;;;;;;10153745;29;20032;-88
2022/07/06 00:15:23;;;;;;;2.15;0.75;;;17.90;91.80;;;;;;10174847;29;20047;-87
2022/07/06 00:20:24;;;;;;;1.88;0.40;;;17.90;92.20;;;;;;10148204;29;20064;-87
2022/07/06 00:25:26;;;;;;;2.40;0.50;;;17.90;92.50;;;;;;10156697;29;20427;-88
2022/07/06 00:30:28;;;;;;;2.38;0.50;;;18.00;92.80;;;;;;10169677;29;20056;-88
2022/07/06 00:35:30;;;;;;;1.05;0.50;;;18.00;93.20;;;;;;10151167;29;20474;-88
2022/07/06 00:40:32;;;;;;;3.80;0.50;;;17.90;93.50;;;;;;10155831;29;20422;-88
2022/07/06 00:45:33;;;;;;;2.10;0.70;;;17.90;93.90;;;;;;10155132;29;22615;-87
2022/07/06 00:50:36;;;;;;;3.85;0.60;;;17.90;94.30;;;;;;10166096;29;20067;-88
2022/07/06 00:55:41;;;;;;;1.00;0.50;;;17.90;94.70;;;;;;10172420;29;20060;-88
2022/07/06 01:00:44;;;;;;;1.83;0.60;;;17.90;95.10;;;;;;10152706;29;20055;-88
2022/07/06 01:05:46;;;;;;;2.15;0.50;;;17.80;95.50;;;;;;10155287;29;20117;-87
2022/07/06 01:10:48;;;;;;;1.23;0.50;;;17.80;96.00;;;;;;10175267;29;20060;-87
2022/07/06 01:15:50;;;;;;;3.67;0.40;;;17.70;96.40;;;;;;10168649;29;20059;-87
2022/07/06 01:21:06;;;;;;;0.95;0.50;;;17.60;97.00;;;;;;10175848;29;20067;-87
2022/07/06 01:26:10;;;;;;;0.88;0.50;;;17.50;97.40;;;;;;10194937;29;20052;-87
2022/07/06 01:31:21;;;;;;;0.65;0.50;;;17.40;97.90;;;;;;10190880;29;20427;-88
2022/07/06 01:36:23;;;;;;;2.75;0.60;;;17.40;98.40;;;;;;10192355;29;20039;-88
2022/07/06 01:41:25;;;;;;;1.15;0.52;;;17.30;98.80;;;;;;10190166;29;20478;-87
2022/07/06 01:46:27;;;;;;;1.70;0.60;;;17.20;99.40;;;;;;10180618;29;20162;-87
2022/07/06 01:51:29;;;;;;;2.42;0.60;;;17.10;99.80;;;;;;10198002;29;20522;-87
2022/07/06 01:56:31;;;;;;;2.50;0.88;;;17.10;99.90;;;;;;10174127;29;21338;-88
2022/07/06 02:01:33;;;;;;;1.00;0.50;;;17.00;99.90;;;;;;10179277;29;20074;-88
2022/07/06 02:06:35;;;;;;;3.80;0.50;;;16.90;99.90;;;;;;10190897;29;20063;-88
2022/07/06 02:11:37;;;;;;;1.02;0.70;;;16.80;99.90;;;;;;10167100;29;20080;-88
2022/07/06 02:16:38;;;;;;;1.35;0.70;;;16.70;99.90;;;;;;10174602;29;20511;-88
2022/07/06 02:21:40;;;;;;;2.65;0.77;;;16.60;99.90;;;;;;10173307;29;20056;-87
2022/07/06 02:26:42;;;;;;;3.13;0.57;;;16.50;99.90;;;;;;10190016;29;20061;-87
2022/07/06 02:31:44;;;;;;;5.10;0.55;;;16.40;99.90;;;;;;10163535;29;20403;-87
2022/07/06 02:36:45;;;;;;;1.38;0.45;;;16.30;99.90;;;;;;10202147;29;20048;-87
2022/07/06 02:41:47;;;;;;;2.55;0.55;;;16.30;99.90;;;;;;10197442;29;20099;-87
2022/07/06 02:46:49;;;;;;;5.40;0.50;;;16.20;99.90;;;;;;10183486;29;20399;-87
2022/07/06 02:51:51;;;;;;;2.15;0.40;;;16.20;99.90;;;;;;10180876;29;20051;-87
2022/07/06 02:56:53;;;;;;;0.73;0.40;;;16.10;99.90;;;;;;10179068;29;20043;-87
2022/07/06 03:01:54;;;;;;;2.20;0.30;;;16.00;99.90;;;;;;10197513;29;20134;-87
2022/07/06 03:06:56;;;;;;;0.90;0.50;;;15.90;99.90;;;;;;10180530;29;20063;-87
2022/07/06 03:11:58;;;;;;;0.52;0.47;;;15.80;99.90;;;;;;10179566;29;20099;-87
2022/07/06 03:17:00;;;;;;;1.38;0.40;;;15.80;99.90;;;;;;10197159;29;20058;-87
2022/07/06 03:22:02;;;;;;;1.17;0.40;;;15.80;99.90;;;;;;10182713;29;20181;-87
2022/07/06 03:27:04;;;;;;;0.90;0.30;;;15.70;99.90;;;;;;10195731;29;27880;-88
2022/07/06 03:32:06;;;;;;;1.05;0.30;;;15.70;99.90;;;;;;10174166;29;20078;-87
2022/07/06 03:37:08;;;;;;;3.67;0.93;;;15.60;99.90;;;;;;10192325;29;20052;-87
2022/07/06 03:42:10;;;;;;;1.05;0.30;;;15.60;99.90;;;;;;10173348;29;20064;-86
2022/07/06 03:47:12;;;;;;;2.25;0.40;;;15.50;99.90;;;;;;10173656;29;20058;-87
2022/07/06 03:52:14;;;;;;;3.38;0.40;;;15.50;99.90;;;;;;10190362;29;20054;-86
2022/07/06 03:57:16;;;;;;;1.88;0.35;;;15.50;99.90;;;;;;10191291;29;20722;-87
2022/07/06 04:02:18;;;;;;;1.77;0.40;;;15.40;99.90;;;;;;10191642;29;20056;-87
2022/07/06 04:07:20;;;;;;;2.20;0.30;;;15.40;99.90;;;;;;10176225;29;20115;-87
2022/07/06 04:12:22;;;;;;;0.60;0.40;;;15.40;99.90;;;;;;10193231;29;20723;-88
2022/07/06 04:22:47;;;;;;;3.92;0.45;;;15.40;99.90;;;;;;10189369;29;20068;-88
2022/07/06 04:27:50;;;;;;;2.22;0.40;;;15.40;99.90;;;;;;10177009;29;20064;-87
2022/07/06 04:32:51;;;;;;;2.65;0.50;;;15.40;99.90;;;;;;10069354;29;20039;-89
2022/07/06 04:37:53;;;;;;;1.00;0.40;;;15.40;99.90;;;;;;10096809;29;20047;-89
2022/07/06 04:42:55;;;;;;;4.95;0.50;;;15.40;99.90;;;;;;10164516;29;20047;-89
2022/07/06 04:47:57;;;;;;;0.88;0.50;;;15.50;99.90;;;;;;10155238;29;20063;-90
2022/07/06 04:52:59;;;;;;;1.63;0.60;;;15.50;99.90;;;;;;10173454;29;20055;-91
2022/07/06 04:58:01;;;;;;;0.93;0.55;;;15.50;99.90;;;;;;10153797;29;20071;-90
2022/07/06 05:03:03;;;;;;;2.17;0.60;;;15.40;99.90;;;;;;10176067;29;20060;-88
2022/07/06 05:08:06;;;;;;;1.42;0.52;;;15.40;99.90;;;;;;10173828;29;21362;-90
2022/07/06 05:13:09;;;;;;;2.80;0.50;;;15.50;99.90;;;;;;9980283;29;20057;-90
2022/07/06 05:18:11;;;;;;;3.47;0.65;;;15.50;99.90;;;;;;10153124;29;20508;-89
2022/07/06 05:23:13;;;;;;;3.92;0.50;;;15.70;99.90;;;;;;10060563;29;20056;-89
2022/07/06 05:28:16;;;;;;;1.80;0.40;;;15.90;99.90;;;;;;10175386;29;20070;-89
2022/07/06 05:33:18;;;;;;;1.83;0.68;;;15.90;99.90;;;;;;10168469;29;20463;-89
2022/07/06 05:38:20;;;;;;;2.30;0.70;;;16.00;99.90;;;;;;10169876;29;20058;-89
2022/07/06 05:43:22;;;;;;;3.35;0.70;;;16.30;99.90;;;;;;10157995;29;20095;-89
2022/07/06 05:53:45;;;;;;;2.67;0.65;;;16.20;99.90;;;;;;10189918;29;20055;-89
2022/07/06 05:58:47;;;;;;;4.68;0.70;;;16.60;99.90;;;;;;10165109;29;20052;-89
2022/07/06 06:03:49;;;;;;;4.05;1.13;;;16.70;99.90;;;;;;10173421;29;20067;-89
2022/07/06 06:08:51;;;;;;;0.98;0.55;;;16.70;99.90;;;;;;10185682;29;20135;-90
2022/07/06 06:13:52;;;;;;;2.72;0.75;;;16.70;99.90;;;;;;10163681;29;20048;-90
2022/07/06 06:18:54;;;;;;;1.65;0.77;;;16.90;99.90;;;;;;10143459;29;20053;-89
2022/07/06 06:23:56;;;;;;;3.33;0.80;;;17.10;99.90;;;;;;10155479;29;20051;-89
2022/07/06 06:28:58;;;;;;;1.80;0.50;;;17.20;99.90;;;;;;10175323;29;20105;-91
2022/07/06 06:34:00;;;;;;;0.85;0.70;;;17.30;99.90;;;;;;10187122;29;20095;-90
2022/07/06 06:39:02;;;;;;;6.78;1.15;;;17.20;99.90;;;;;;10182402;29;20410;-89
2022/07/06 06:44:04;;;;;;;3.22;0.80;;;17.10;99.90;;;;;;10199967;29;20055;-90
2022/07/06 06:49:06;;;;;;;3.35;0.82;;;17.00;99.90;;;;;;10179994;29;20043;-90
2022/07/06 06:54:07;;;;;;;1.30;0.68;;;17.20;99.90;;;;;;10166120;29;20060;-89
2022/07/06 06:59:09;;;;;;;2.25;0.60;;;17.30;99.90;;;;;;10165931;29;20066;-89
2022/07/06 07:04:19;;;;;;;4.22;0.88;;;17.50;99.90;;;;;;10168240;29;20060;-89
2022/07/06 07:09:21;;;;;;;4.07;0.80;;;17.80;99.90;;;;;;10167573;29;20082;-90
2022/07/06 07:14:23;;;;;;;2.88;0.70;;;17.80;99.90;;;;;;10170124;29;20513;-89
2022/07/06 07:19:24;;;;;;;0.85;0.50;;;17.90;99.90;;;;;;10199554;29;20135;-89
2022/07/06 07:24:26;;;;;;;2.38;0.50;;;18.10;99.90;;;;;;10180427;29;20059;-89
2022/07/06 07:29:28;;;;;;;2.60;0.70;;;18.20;99.90;;;;;;10184220;29;20430;-90
2022/07/06 07:34:30;;;;;;;0.77;0.40;;;18.40;99.90;;;;;;10163023;29;20145;-89
2022/07/06 07:39:32;;;;;;;2.95;0.55;;;18.50;99.60;;;;;;10167799;29;20056;-90
2022/07/06 07:44:34;;;;;;;1.33;0.40;;;18.60;99.50;;;;;;10180643;29;20130;-90
2022/07/06 07:49:35;;;;;;;2.55;0.80;;;18.60;98.90;;;;;;10170806;29;20060;-91
2022/07/06 07:54:37;;;;;;;2.20;0.60;;;18.60;98.00;;;;;;10179871;29;20085;-91
2022/07/06 07:59:47;;;;;;;1.95;0.70;;;18.50;97.80;;;;;;10167812;29;20423;-91
2022/07/06 08:04:57;;;;;;;3.45;0.63;;;18.40;97.60;;;;;;9952543;29;20112;-91
2022/07/06 08:10:02;;;;;;;5.70;0.80;;;18.50;98.30;;;;;;10131365;29;20136;-91
2022/07/06 08:15:05;;;;;;;3.50;0.93;;;18.30;97.90;;;;;;10094545;29;20156;-90
2022/07/06 08:20:19;;;;;;;3.80;1.13;;;18.40;97.40;;;;;;10119376;29;20048;-91
2022/07/06 08:25:26;;;;;;;3.10;0.90;;;18.60;97.60;;;;;;10036071;29;20086;-91
2022/07/06 08:30:31;;;;;;;4.47;1.55;;;18.60;97.00;;;;;;10175465;29;20111;-90
2022/07/06 08:35:38;;;;;;;5.57;0.70;;;18.70;96.90;;;;;;9992039;29;20364;-90
2022/07/06 08:40:45;;;;;;;3.72;0.80;;;18.90;95.70;;;;;;10102835;29;20088;-91
2022/07/06 08:45:49;;;;;;;1.70;0.60;;;18.80;95.70;;;;;;10147843;29;20072;-90
2022/07/06 08:50:54;;;;;;;4.32;0.68;;;18.90;95.40;;;;;;10176083;29;20139;-91
2022/07/06 08:55:56;;;;;;;3.00;0.70;;;19.40;94.50;;;;;;10164249;29;20082;-91
2022/07/06 09:00:58;;;;;;;2.13;0.80;;;19.30;94.00;;;;;;10065485;29;20411;-91
2022/07/06 09:06:06;;;;;;;2.50;0.70;;;19.40;93.90;;;;;;10042524;29;20048;-90
2022/07/06 09:11:08;;;;;;;2.72;0.70;;;19.30;93.30;;;;;;10109697;29;20079;-91
2022/07/06 09:16:12;;;;;;;3.05;0.80;;;19.50;92.70;;;;;;10161685;29;20174;-90
2022/07/06 09:21:37;;;;;;;3.33;0.52;;;19.80;92.50;;;;;;10140602;29;20091;-90
2022/07/06 09:26:41;;;;;;;1.17;0.50;;;20.10;91.60;;;;;;10163754;29;20051;-91
2022/07/06 09:31:56;;;;;;;2.08;0.50;;;20.20;91.50;;;;;;10186994;29;20100;-91
2022/07/06 09:37:02;;;;;;;1.77;0.50;;;20.00;90.80;;;;;;10172285;29;20086;-91
2022/07/06 09:42:07;;;;;;;1.53;0.60;;;20.00;90.50;;;;;;10147636;29;20047;-90
2022/07/06 09:47:11;;;;;;;2.15;0.43;;;19.90;90.10;;;;;;10179079;29;20070;-91
2022/07/06 09:52:13;;;;;;;0.77;0.68;;;20.00;89.60;;;;;;10156910;29;20060;-91
2022/07/06 09:57:16;;;;;;;2.58;0.90;;;20.30;89.10;;;;;;10175386;29;20051;-88
2022/07/06 10:02:20;;;;;;;1.33;0.52;;;20.30;87.40;;;;;;10158700;29;20044;-91
2022/07/06 10:07:24;;;;;;;3.50;0.70;;;20.70;88.80;;;;;;10162114;29;20060;-92
2022/07/06 10:12:27;;;;;;;2.72;0.85;;;20.60;86.10;;;;;;10161383;29;20064;-91
2022/07/06 10:17:29;;;;;;;2.42;0.60;;;20.60;83.40;;;;;;10172370;29;20063;-91
2022/07/06 10:22:31;;;;;;;0.88;0.50;;;20.50;83.20;;;;;;10195581;29;20142;-91
2022/07/06 10:27:35;;;;;;;0.55;0.45;;;20.90;83.00;;;;;;10158995;29;20058;-92
2022/07/06 10:32:39;;;;;;;1.80;1.08;;;21.00;80.30;;;;;;10183185;29;20056;-91
2022/07/06 10:37:41;;;;;;;4.40;0.70;;;21.30;81.90;;;;;;10171830;29;20087;-89
2022/07/06 10:42:53;;;;;;;1.00;0.55;;;21.50;76.00;;;;;;10197297;29;20070;-91
2022/07/06 10:48:10;;;;;;;1.88;0.52;;;21.90;75.10;;;;;;10184439;29;20076;-90
2022/07/06 10:53:14;;;;;;;1.33;0.50;;;21.00;77.00;;;;;;10184512;28;20060;-91
2022/07/06 10:58:48;;;;;;;1.33;0.40;;;21.40;76.50;;;;;;10211660;29;20059;-90
2022/07/06 11:04:05;;;;;;;1.15;0.50;;;21.40;75.00;;;;;;10186655;29;20052;-90
2022/07/06 11:09:09;;;;;;;2.30;0.40;;;21.60;72.40;;;;;;10205860;29;20062;-91
2022/07/06 11:14:13;;;;;;;2.95;0.40;;;21.80;71.20;;;;;;10162412;29;20059;-91
2022/07/06 11:19:16;;;;;;;3.15;0.40;;;22.00;71.50;;;;;;10176179;29;20563;-89
2022/07/06 11:24:28;;;;;;;1.08;0.30;;;22.00;72.80;;;;;;10164670;29;20506;-91
2022/07/06 11:29:34;;;;;;;0.90;0.22;;;21.90;70.40;;;;;;10192385;29;20079;-92
2022/07/06 11:34:40;;;;;;;0.88;0.30;;;22.20;68.40;;;;;;10196316;29;20051;-90
2022/07/06 11:39:43;;;;;;;0.40;0.20;;;21.90;67.90;;;;;;10198023;29;20079;-90
2022/07/06 11:44:46;;;;;;;0.63;0.30;;;22.60;68.60;;;;;;10197936;29;20058;-91
2022/07/06 11:49:50;;;;;;;0.75;0.20;;;22.30;67.60;;;;;;10196430;29;20071;-91
2022/07/06 11:54:58;;;;;;;2.63;0.30;;;22.70;65.40;;;;;;10181620;29;20048;-90
2022/07/06 12:00:00;;;;;;;1.33;0.20;;;23.00;66.10;;;;;;10179435;29;20058;-91
2022/07/06 12:05:02;;;;;;;0.22;0.20;;;23.50;65.90;;;;;;10147605;29;1178749;-89
2022/07/06 12:10:05;;;;;;;1.60;0.10;;;23.80;62.10;;;;;;10158761;29;20091;-89
2022/07/06 12:15:07;;;;;;;0.90;0.20;;;24.50;63.50;;;;;;10175734;29;20048;-90
2022/07/06 12:20:10;;;;;;;0.77;0.20;;;23.60;61.30;;;;;;10151376;29;20078;-89
2022/07/06 12:25:28;;;;;;;0.40;0.20;;;24.20;63.70;;;;;;10159943;29;20060;-90
2022/07/06 12:30:30;;;;;;;4.57;0.50;;;24.60;62.20;;;;;;10175134;29;20075;-90
2022/07/06 12:35:33;;;;;;;3.90;0.28;;;23.80;62.30;;;;;;10183210;29;20087;-91
2022/07/06 12:40:38;;;;;;;0.50;0.20;;;24.00;62.00;;;;;;10188924;29;20117;-89
2022/07/06 12:45:40;;;;;;;0.85;0.28;;;23.60;62.00;;;;;;10126232;29;20056;-88
2022/07/06 12:50:42;;;;;;;0.32;0.20;;;23.90;61.50;;;;;;10166717;29;20056;-88
2022/07/06 12:55:44;;;;;;;1.38;0.20;;;23.50;60.20;;;;;;10154526;29;20068;-88
2022/07/06 13:00:49;;;;;;;1.23;0.10;;;23.60;61.50;;;;;;10153149;29;20098;-91
2022/07/06 13:05:51;;;;;;;3.28;0.20;;;24.40;60.60;;;;;;10134938;29;20542;-91
2022/07/06 13:10:53;;;;;;;1.45;0.10;;;24.20;59.10;;;;;;10144018;29;20052;-92
2022/07/06 13:16:03;;;;;;;1.67;0.30;;;24.00;61.30;;;;;;10129415;29;20052;-92
2022/07/06 13:21:16;;;;;;;0.82;0.20;;;24.00;63.40;;;;;;10099216;29;20060;-92
2022/07/06 13:26:18;;;;;;;0.80;0.30;;;23.70;63.20;;;;;;10096830;29;20107;-92
2022/07/06 13:31:22;;;;;;;0.28;0.20;;;23.40;63.50;;;;;;10137929;29;20064;-92
2022/07/06 13:36:29;;;;;;;1.65;0.22;;;23.30;63.30;;;;;;10162707;29;20092;-92
2022/07/06 13:41:35;;;;;;;0.75;0.20;;;22.70;64.00;;;;;;10108917;29;20083;-91
2022/07/06 13:46:40;;;;;;;0.73;0.30;;;23.10;64.10;;;;;;10146565;29;20063;-92
2022/07/06 13:51:44;;;;;;;1.00;0.20;;;22.60;65.30;;;;;;10123165;29;20056;-91
2022/07/06 13:56:46;;;;;;;0.30;0.22;;;22.90;65.20;;;;;;10113957;29;20062;-91
2022/07/06 14:01:58;;;;;;;1.48;0.38;;;22.50;66.40;;;;;;10154825;29;20635;-91
2022/07/06 14:07:00;;;;;;;0.98;0.30;;;22.70;66.60;;;;;;10151595;29;20075;-92
2022/07/06 14:12:03;;;;;;;4.97;0.30;;;22.70;67.10;;;;;;10179128;29;20058;-91
2022/07/06 14:17:06;;;;;;;1.08;0.50;;;22.80;66.80;;;;;;9951471;29;20052;-93
2022/07/06 14:22:08;;;;;;;3.97;0.40;;;23.00;65.70;;;;;;9983836;29;20064;-91
2022/07/06 14:27:10;;;;;;;3.75;0.40;;;23.50;64.10;;;;;;10098633;29;20140;-88
2022/07/06 14:32:12;;;;;;;0.40;0.35;;;23.20;64.70;;;;;;10176483;29;20058;-87
2022/07/06 14:37:14;;;;;;;0.82;0.30;;;23.30;64.30;;;;;;10180506;29;20056;-87
2022/07/06 14:42:21;;;;;;;0.85;0.30;;;23.20;63.20;;;;;;10182121;29;20048;-90
2022/07/06 14:47:23;;;;;;;1.52;0.30;;;22.90;63.10;;;;;;10150015;29;20060;-90
2022/07/06 14:52:25;;;;;;;1.65;0.30;;;22.60;64.00;;;;;;10129034;29;20131;-90
2022/07/06 14:57:27;;;;;;;0.90;0.40;;;22.70;64.70;;;;;;10189248;29;20124;-90
2022/07/06 15:02:32;;;;;;;2.40;0.30;;;22.60;64.60;;;;;;10071132;29;20099;-92
2022/07/06 15:07:35;;;;;;;1.40;0.40;;;22.60;64.10;;;;;;10097977;29;20194;-93
2022/07/06 15:12:57;;;;;;;0.60;0.30;;;22.30;64.50;;;;;;10019546;29;20072;-93
2022/07/06 15:18:05;;;;;;;0.30;0.30;;;22.50;65.00;;;;;;10119360;29;20059;-91
2022/07/06 15:23:09;;;;;;;2.38;0.30;;;22.20;65.30;;;;;;10169363;29;20067;-91
2022/07/06 15:28:13;;;;;;;2.65;0.30;;;22.10;65.90;;;;;;10136686;29;20060;-92
2022/07/06 15:33:16;;;;;;;0.50;0.30;;;22.10;66.90;;;;;;10145208;29;20068;-92
2022/07/06 15:38:18;;;;;;;2.35;0.50;;;22.50;66.10;;;;;;10143976;29;20044;-92
2022/07/06 15:43:26;;;;;;;0.70;0.25;;;22.50;64.90;;;;;;10108795;29;20051;-92
2022/07/06 15:48:32;;;;;;;0.55;0.30;;;22.60;64.90;;;;;;10100667;29;20063;-93
2022/07/06 15:53:39;;;;;;;0.90;0.30;;;22.60;64.80;;;;;;10053352;29;20060;-92
2022/07/06 15:58:45;;;;;;;0.50;0.28;;;22.60;66.40;;;;;;10154415;29;20062;-88
2022/07/06 16:03:47;;;;;;;0.52;0.52;;;22.60;66.00;;;;;;10183564;29;20051;-90
2022/07/06 16:08:49;;;;;;;2.65;0.22;;;23.10;65.10;;;;;;10179323;29;20093;-89
2022/07/06 16:13:51;;;;;;;1.58;0.30;;;23.40;65.00;;;;;;10163190;29;20079;-90
2022/07/06 16:18:57;;;;;;;0.77;0.35;;;23.30;65.00;;;;;;10111522;29;20067;-90
2022/07/06 16:24:02;;;;;;;5.43;0.20;;;23.20;64.10;;;;;;10092392;29;20072;-90
2022/07/06 16:29:04;;;;;;;1.17;0.20;;;23.40;64.20;;;;;;10149477;29;20414;-89
2022/07/06 16:34:06;;;;;;;0.60;0.20;;;23.10;64.30;;;;;;10174897;29;20067;-89
2022/07/06 16:39:08;;;;;;;0.95;0.20;;;23.10;64.40;;;;;;10161899;29;20525;-89
2022/07/06 16:44:10;;;;;;;1.38;0.30;;;23.20;64.10;;;;;;10188939;29;20075;-88
2022/07/06 16:49:12;;;;;;;2.35;0.20;;;22.70;64.70;;;;;;10168995;29;20114;-87
2022/07/06 16:54:14;;;;;;;1.40;0.30;;;22.90;64.40;;;;;;10159261;29;20043;-87
2022/07/06 16:59:16;;;;;;;1.08;0.20;;;23.80;63.90;;;;;;10196264;29;20075;-87
2022/07/06 17:04:18;;;;;;;0.20;0.20;;;24.10;62.90;;;;;;10179006;29;20406;-87
2022/07/06 17:09:22;;;;;;;1.65;0.25;;;24.00;62.40;;;;;;10166256;29;20083;-88
2022/07/06 17:14:24;;;;;;;0.75;0.30;;;23.90;62.40;;;;;;10181577;29;20066;-88
2022/07/06 17:19:26;;;;;;;3.40;0.20;;;24.10;62.40;;;;;;10156371;29;20052;-88
2022/07/06 17:24:36;;;;;;;2.92;0.20;;;24.80;61.10;;;;;;10095636;29;20044;-88
2022/07/06 17:29:48;;;;;;;1.70;0.20;;;23.90;61.80;;;;;;10076283;29;20071;-88
2022/07/06 17:34:50;;;;;;;0.75;0.10;;;24.30;61.50;;;;;;10185444;29;20400;-88
2022/07/06 17:39:54;;;;;;;0.40;0.30;;;24.00;62.40;;;;;;10181244;29;20051;-88
2022/07/06 17:44:56;;;;;;;2.10;0.20;;;24.30;62.60;;;;;;10163293;29;20083;-88
2022/07/06 17:50:01;;;;;;;1.60;0.20;;;24.20;63.20;;;;;;10131056;29;20079;-88
2022/07/06 17:55:04;;;;;;;0.65;0.20;;;24.60;62.80;;;;;;10134326;29;20097;-89
2022/07/06 18:00:10;;;;;;;2.42;0.20;;;24.30;62.30;;;;;;10143429;29;20069;-89
2022/07/06 18:05:12;;;;;;;1.75;0.20;;;24.40;61.50;;;;;;10163209;29;20119;-88
2022/07/06 18:10:14;;;;;;;1.00;0.28;;;24.20;62.00;;;;;;10173282;29;20064;-88
2022/07/06 18:15:16;;;;;;;1.08;0.17;;;24.00;62.10;;;;;;10183157;29;20092;-87
2022/07/06 18:20:18;;;;;;;0.93;0.20;;;24.00;62.30;;;;;;10185522;29;20048;-88
2022/07/06 18:25:20;;;;;;;1.52;0.25;;;22.90;64.00;;;;;;10176708;29;20084;-89
2022/07/06 18:30:23;;;;;;;1.85;0.30;;;22.70;65.00;;;;;;10155254;29;20572;-88
2022/07/06 18:35:25;;;;;;;1.95;0.40;;;22.30;66.20;;;;;;10180911;29;20083;-88
2022/07/06 18:40:32;;;;;;;;;;;21.70;67.50;;;;;;10193094;29;20090;-87
2022/07/06 18:45:33;;;;;;;1.27;0.20;;;21.20;68.50;;;;;;10183664;29;19954;-88
2022/07/06 18:50:35;;;;;;;1.48;0.20;;;21.20;69.40;;;;;;10196246;29;20075;-88
2022/07/06 18:55:37;;;;;;;3.25;0.75;;;20.90;70.10;;;;;;10192394;29;20155;-87
2022/07/06 19:00:42;;;;;;;1.98;0.20;;;20.70;71.00;;;;;;10173113;29;20051;-87
2022/07/06 19:05:44;;;;;;;0.22;0.20;;;20.20;71.60;;;;;;10192438;29;20066;-89
2022/07/06 19:10:47;;;;;;;0.85;0.20;;;20.00;72.60;;;;;;10185383;29;20048;-87
2022/07/06 19:15:48;;;;;;;1.10;0.13;;;19.80;74.30;;;;;;10167686;29;20423;-88
2022/07/06 19:20:50;;;;;;;2.20;0.20;;;19.60;74.40;;;;;;10182526;29;20138;-88
2022/07/06 19:25:52;;;;;;;3.88;0.20;;;19.30;75.20;;;;;;10193321;29;20075;-89
2022/07/06 19:30:55;;;;;;;2.42;0.28;;;19.30;76.10;;;;;;10135486;29;20060;-89
2022/07/06 19:35:57;;;;;;;1.38;0.30;;;19.00;77.10;;;;;;10187202;29;20083;-89
2022/07/06 19:41:02;;;;;;;0.50;0.20;;;18.80;77.70;;;;;;10187046;29;20054;-90
2022/07/06 19:46:04;;;;;;;1.38;0.20;;;18.60;78.50;;;;;;10191608;29;20380;-89
2022/07/06 19:51:08;;;;;;;2.90;0.30;;;18.50;79.10;;;;;;10185333;29;20107;-89
2022/07/06 19:56:10;;;;;;;0.35;0.20;;;18.40;79.80;;;;;;10187649;29;20119;-89
2022/07/06 20:01:12;;;;;;;0.50;0.30;;;18.30;80.20;;;;;;10185035;29;20056;-89
2022/07/06 20:06:14;;;;;;;1.48;0.30;;;18.20;80.90;;;;;;10194180;29;20066;-90
2022/07/06 20:11:16;;;;;;;1.23;0.30;;;18.10;81.70;;;;;;10180774;29;20099;-90
2022/07/06 20:16:18;;;;;;;1.23;0.30;;;17.90;82.70;;;;;;10175295;29;20059;-88
2022/07/06 20:21:21;;;;;;;1.70;0.20;;;17.80;83.60;;;;;;10191628;29;20083;-89
2022/07/06 20:26:23;;;;;;;1.00;0.30;;;17.70;84.60;;;;;;10173177;29;20071;-88
2022/07/06 20:31:25;;;;;;;0.57;0.30;;;17.60;85.40;;;;;;10186364;29;20063;-88
2022/07/06 20:36:27;;;;;;;1.02;0.22;;;17.50;86.00;;;;;;10209779;29;20082;-88
2022/07/06 20:41:29;;;;;;;2.83;0.30;;;17.50;86.60;;;;;;10200842;29;20048;-88
2022/07/06 20:46:31;;;;;;;2.58;0.30;;;17.40;87.40;;;;;;10187525;29;20106;-88
2022/07/06 20:51:33;;;;;;;0.60;0.40;;;17.30;88.20;;;;;;10183465;29;20067;-88
2022/07/06 20:56:36;;;;;;;1.33;0.38;;;17.30;88.70;;;;;;10163878;29;20131;-87
2022/07/06 21:01:38;;;;;;;0.80;0.30;;;17.30;89.40;;;;;;10175680;29;20130;-87
2022/07/06 21:06:40;;;;;;;1.45;0.20;;;17.30;90.00;;;;;;10189346;29;20402;-88
2022/07/06 21:11:42;;;;;;;0.52;0.30;;;17.20;90.00;;;;;;10187331;29;20396;-88
2022/07/06 21:16:44;;;;;;;0.73;0.30;;;17.20;90.40;;;;;;10188317;29;20299;-88
2022/07/06 21:21:46;;;;;;;1.95;0.47;;;17.10;90.70;;;;;;10187342;29;20056;-88
2022/07/06 21:26:48;;;;;;;1.13;0.32;;;17.10;91.00;;;;;;10185953;29;20048;-88
2022/07/06 21:31:50;;;;;;;1.00;0.40;;;16.90;91.60;;;;;;10178587;29;20056;-88
2022/07/06 21:36:52;;;;;;;0.30;0.30;;;16.90;91.80;;;;;;10177725;29;20083;-88
2022/07/06 21:41:56;;;;;;;2.90;0.40;;;17.00;91.90;;;;;;10153478;29;20146;-87
2022/07/06 21:46:58;;;;;;;1.65;0.30;;;17.10;91.80;;;;;;10178813;29;20059;-87
2022/07/06 21:52:02;;;;;;;0.20;0.20;;;17.10;91.70;;;;;;10174968;29;20131;-88
2022/07/06 21:57:07;;;;;;;2.37;0.20;;;17.20;91.80;;;;;;10140545;29;20060;-87
2022/07/06 22:02:12;;;;;;;0.60;0.40;;;17.30;91.90;;;;;;10168175;29;20131;-87
2022/07/06 22:07:14;;;;;;;2.60;0.30;;;17.30;91.90;;;;;;10189244;29;20537;-88
2022/07/06 22:12:16;;;;;;;0.40;0.30;;;17.40;91.90;;;;;;10177104;29;20476;-87
2022/07/06 22:17:17;;;;;;;0.38;0.20;;;17.50;92.10;;;;;;10149060;29;20048;-88
2022/07/06 22:22:19;;;;;;;1.13;0.30;;;17.50;92.10;;;;;;10180559;29;20056;-87
2022/07/06 22:27:21;;;;;;;1.92;0.30;;;17.60;92.30;;;;;;10165078;29;20399;-87
2022/07/06 22:32:23;;;;;;;1.52;0.20;;;17.60;92.50;;;;;;10196073;29;20060;-88
2022/07/06 22:37:25;;;;;;;0.50;0.30;;;17.70;92.60;;;;;;10180324;29;20098;-89
2022/07/06 22:42:26;;;;;;;1.00;0.40;;;17.60;92.20;;;;;;10177936;29;20051;-89
2022/07/06 22:47:28;;;;;;;1.15;0.30;;;17.60;92.20;;;;;;10170452;29;20436;-89
2022/07/06 22:52:30;;;;;;;0.40;0.20;;;17.70;92.10;;;;;;10154121;29;20032;-89
2022/07/06 22:57:34;;;;;;;2.05;0.30;;;17.70;92.20;;;;;;10164044;29;20056;-88
2022/07/06 23:02:36;;;;;;;3.05;0.40;;;17.80;92.80;;;;;;10182499;29;20067;-88
2022/07/06 23:07:38;;;;;;;0.45;0.30;;;17.80;94.00;;;;;;10185761;29;20191;-88
2022/07/06 23:12:40;;;;;;;2.40;0.30;;;17.90;93.90;;;;;;10156325;29;20047;-88
2022/07/06 23:17:43;;;;;;;1.95;0.40;;;17.90;94.20;;;;;;10194032;29;20044;-89
2022/07/06 23:22:45;;;;;;;1.15;0.50;;;18.00;94.60;;;;;;10107879;29;20060;-88
2022/07/06 23:27:47;;;;;;;0.90;0.30;;;18.00;94.20;;;;;;10176566;29;20075;-88
2022/07/06 23:32:49;;;;;;;5.60;0.30;;;18.10;94.20;;;;;;10167916;29;20246;-88
2022/07/06 23:37:51;;;;;;;3.33;0.45;;;18.00;94.60;;;;;;10188660;29;20074;-89
2022/07/06 23:42:53;;;;;;;2.70;0.45;;;18.00;94.10;;;;;;10161153;29;20048;-89
2022/07/06 23:47:55;;;;;;;2.75;0.40;;;17.90;93.60;;;;;;10174078;29;20134;-88
2022/07/06 23:52:57;;;;;;;1.60;0.30;;;18.00;93.50;;;;;;10190535;29;20052;-88
2022/07/06 23:58:00;;;;;;;1.98;0.32;;;18.10;93.40;;;;;;10185633;29;20063;-88
